createdAt,value
2022-08-19T00:01:28.854Z,9.02
2022-08-19T00:04:03.176Z,8.70
2022-08-19T00:06:30.694Z,12.07
2022-08-19T00:08:58.154Z,9.32
2022-08-19T00:11:26.363Z,11.70
2022-08-19T00:13:54.324Z,10.65
2022-08-19T00:16:26.125Z,10.73
2022-08-19T00:18:56.214Z,9.18
2022-08-19T00:21:27.614Z,11.02
2022-08-19T00:23:55.636Z,11.75
2022-08-19T00:26:22.863Z,12.85
2022-08-19T00:28:50.143Z,10.70
2022-08-19T00:31:17.386Z,13.50
2022-08-19T00:33:44.674Z,14.10
2022-08-19T00:36:12.282Z,12.10
2022-08-19T00:38:43.643Z,13.93
2022-08-19T00:41:13.732Z,13.93
2022-08-19T00:43:42.038Z,14.07
2022-08-19T00:46:09.361Z,15.25
2022-08-19T00:48:37.429Z,13.30
2022-08-19T00:51:05.350Z,16.58
2022-08-19T00:53:32.870Z,14.50
2022-08-19T00:56:00.627Z,13.88
2022-08-19T00:58:33.516Z,18.25
2022-08-19T01:01:01.902Z,19.48
2022-08-19T01:03:29.228Z,17.67
2022-08-19T01:06:19.841Z,20.17
2022-08-19T01:08:49.996Z,17.73
2022-08-19T01:11:17.698Z,17.42
2022-08-19T01:13:49.824Z,16.95
2022-08-19T01:16:18.537Z,18.77
2022-08-19T01:18:45.806Z,18.02
2022-08-19T01:22:00.923Z,16.90
2022-08-19T01:24:45.171Z,23.33
2022-08-19T01:27:17.815Z,20.60
2022-08-19T01:29:45.912Z,22.17
2022-08-19T01:32:33.081Z,18.90
2022-08-19T01:35:02.842Z,20.33
2022-08-19T01:37:31.421Z,20.40
2022-08-19T01:39:58.897Z,19.75
2022-08-19T01:42:30.568Z,20.73
2022-08-19T01:44:58.121Z,17.98
2022-08-19T01:47:25.376Z,20.50
2022-08-19T01:49:52.614Z,18.55
2022-08-19T01:52:19.862Z,19.83
2022-08-19T01:54:47.096Z,17.20
2022-08-19T01:57:14.327Z,17.08
2022-08-19T01:59:42.223Z,16.10
2022-08-19T02:02:09.697Z,15.38
2022-08-19T02:04:38.636Z,16.88
2022-08-19T02:07:06.621Z,17.77
2022-08-19T02:09:33.871Z,16.38
2022-08-19T02:12:01.154Z,17.65
2022-08-19T02:14:28.473Z,18.30
2022-08-19T02:16:55.733Z,16.92
2022-08-19T02:19:23.310Z,17.38
2022-08-19T02:21:50.542Z,15.32
2022-08-19T02:24:17.843Z,15.52
2022-08-19T02:26:45.074Z,15.23
2022-08-19T02:29:12.299Z,16.20
2022-08-19T02:31:39.579Z,14.95
2022-08-19T02:34:06.806Z,14.25
2022-08-19T02:36:34.057Z,13.38
2022-08-19T02:39:01.304Z,15.57
2022-08-19T02:41:30.482Z,15.48
2022-08-19T02:44:28.732Z,13.45
2022-08-19T02:46:52.622Z,13.57
2022-08-19T02:49:20.617Z,12.00
2022-08-19T02:51:47.998Z,11.98
2022-08-19T02:54:15.537Z,11.85
2022-08-19T02:56:43.588Z,14.20
2022-08-19T02:59:12.617Z,11.93
2022-08-19T03:01:41.552Z,12.38
2022-08-19T03:04:10.279Z,13.77
2022-08-19T03:06:38.623Z,10.35
2022-08-19T03:09:05.918Z,14.80
2022-08-19T03:11:33.397Z,12.75
2022-08-19T03:14:01.462Z,11.55
2022-08-19T03:16:33.389Z,9.10
2022-08-19T03:19:01.419Z,11.98
2022-08-19T03:21:31.299Z,11.30
2022-08-19T03:23:59.442Z,10.50
2022-08-19T03:26:26.784Z,13.23
2022-08-19T03:28:57.983Z,9.52
2022-08-19T03:31:45.202Z,15.52
2022-08-19T03:34:18.219Z,14.73
2022-08-19T03:36:45.770Z,11.50
2022-08-19T03:39:13.025Z,11.25
2022-08-19T03:41:44.913Z,14.32
2022-08-19T03:44:19.056Z,10.88
2022-08-19T03:46:48.227Z,12.48
2022-08-19T03:49:15.495Z,9.05
2022-08-19T03:51:43.012Z,12.45
2022-08-19T03:54:11.973Z,9.40
2022-08-19T03:56:40.348Z,10.90
2022-08-19T03:59:10.196Z,11.65
2022-08-19T04:01:37.565Z,10.60
2022-08-19T04:04:05.327Z,10.73
2022-08-19T04:06:35.471Z,18.00
2022-08-19T04:09:07.648Z,11.45
2022-08-19T04:11:43.638Z,13.48
2022-08-19T04:14:17.978Z,12.60
2022-08-19T04:16:45.629Z,14.30
2022-08-19T04:19:13.302Z,20.33
2022-08-19T04:21:40.756Z,18.80
2022-08-19T04:24:08.354Z,14.73
2022-08-19T04:26:36.786Z,20.15
2022-08-19T04:29:11.672Z,21.55
2022-08-19T04:31:39.943Z,18.85
2022-08-19T04:34:08.574Z,16.02
2022-08-19T04:36:36.715Z,17.58
2022-08-19T04:39:06.369Z,15.63
2022-08-19T04:42:12.251Z,17.33
2022-08-19T04:44:45.896Z,13.98
2022-08-19T04:47:14.296Z,17.80
2022-08-19T04:49:42.754Z,15.35
2022-08-19T04:52:09.979Z,16.13
2022-08-19T04:54:39.247Z,16.67
2022-08-19T04:57:08.451Z,14.80
2022-08-19T04:59:36.511Z,17.50
2022-08-19T05:02:04.361Z,19.33
2022-08-19T05:04:33.804Z,16.13
2022-08-19T05:07:01.888Z,17.02
2022-08-19T05:09:44.185Z,18.55
2022-08-19T05:12:18.059Z,19.02
2022-08-19T05:14:46.512Z,17.13
2022-08-19T05:17:36.276Z,18.05
2022-08-19T05:20:24.352Z,16.33
2022-08-19T05:22:51.592Z,16.58
2022-08-19T05:25:20.443Z,16.42
2022-08-19T05:27:48.094Z,15.77
2022-08-19T05:30:15.369Z,17.40
2022-08-19T05:32:42.808Z,17.05
2022-08-19T05:35:10.522Z,19.42
2022-08-19T05:37:37.931Z,18.13
2022-08-19T05:40:05.527Z,15.32
2022-08-19T05:42:32.849Z,17.05
2022-08-19T05:45:00.098Z,15.18
2022-08-19T05:47:27.335Z,19.67
2022-08-19T05:49:54.570Z,17.70
2022-08-19T05:52:25.751Z,17.48
2022-08-19T05:54:55.852Z,17.67
2022-08-19T05:57:24.093Z,19.85
2022-08-19T05:59:53.247Z,14.90
2022-08-19T06:02:31.956Z,17.80
2022-08-19T06:04:59.464Z,15.60
2022-08-19T06:07:26.848Z,15.65
2022-08-19T06:09:59.968Z,17.80
2022-08-19T06:12:35.434Z,15.10
2022-08-19T06:15:06.590Z,15.15
2022-08-19T06:17:35.687Z,19.33
2022-08-19T06:20:05.682Z,18.25
2022-08-19T06:22:33.003Z,22.25
2022-08-19T06:25:00.225Z,22.38
2022-08-19T06:27:27.525Z,19.77
2022-08-19T06:29:55.048Z,22.50
2022-08-19T06:32:22.291Z,19.95
2022-08-19T06:34:49.631Z,20.15
2022-08-19T06:37:16.879Z,18.60
2022-08-19T06:39:44.821Z,20.77
2022-08-19T06:42:14.118Z,21.85
2022-08-19T06:44:43.249Z,20.67
2022-08-19T06:47:14.796Z,20.65
2022-08-19T06:49:50.537Z,19.50
2022-08-19T06:52:17.889Z,21.20
2022-08-19T06:54:55.783Z,22.67
2022-08-19T06:57:24.974Z,21.40
2022-08-19T06:59:52.699Z,20.73
2022-08-19T07:02:20.166Z,21.52
2022-08-19T07:04:47.431Z,19.15
2022-08-19T07:07:19.963Z,21.73
2022-08-19T07:09:58.273Z,24.20
2022-08-19T07:12:33.777Z,20.60
2022-08-19T07:15:05.179Z,21.30
2022-08-19T07:17:34.589Z,20.85
2022-08-19T07:20:05.000Z,21.05
2022-08-19T07:22:34.985Z,30.77
2022-08-19T07:25:04.534Z,25.70
2022-08-19T07:27:33.444Z,29.63
2022-08-19T07:30:01.159Z,24.77
2022-08-19T07:32:28.503Z,31.50
2022-08-19T07:34:56.332Z,25.52
2022-08-19T07:37:32.455Z,29.02
2022-08-19T07:40:01.840Z,28.60
2022-08-19T07:42:30.719Z,32.75
2022-08-19T07:44:59.273Z,39.80
2022-08-19T07:47:49.427Z,38.78
2022-08-19T07:50:15.874Z,36.55
2022-08-19T07:52:45.160Z,41.33
2022-08-19T07:55:41.310Z,39.92
2022-08-19T07:58:05.827Z,41.15
2022-08-19T08:00:33.203Z,38.47
2022-08-19T08:03:00.502Z,36.13
2022-08-19T08:05:46.446Z,41.92
2022-08-19T08:08:44.209Z,38.85
2022-08-19T08:11:16.930Z,37.67
2022-08-19T08:13:45.253Z,40.78
2022-08-19T08:16:14.553Z,45.03
2022-08-19T08:18:43.318Z,46.08
2022-08-19T08:21:17.775Z,45.35
2022-08-19T08:23:45.068Z,46.22
2022-08-19T08:26:15.967Z,42.42
2022-08-19T08:28:48.031Z,42.83
2022-08-19T08:31:16.967Z,43.45
2022-08-19T08:33:44.202Z,44.75
2022-08-19T08:36:12.639Z,48.85
2022-08-19T08:38:41.732Z,49.95
2022-08-19T08:41:36.383Z,45.35
2022-08-19T08:44:05.202Z,48.55
2022-08-19T08:46:46.928Z,44.10
2022-08-19T08:49:28.648Z,47.70
2022-08-19T08:52:05.173Z,49.03
2022-08-19T08:54:41.414Z,45.17
2022-08-19T08:57:49.899Z,42.30
2022-08-19T09:00:31.343Z,43.75
2022-08-19T09:02:59.300Z,45.15
2022-08-19T09:05:53.751Z,44.65
2022-08-19T09:08:48.223Z,43.83
2022-08-19T09:11:41.992Z,43.55
2022-08-19T09:14:40.674Z,38.65
2022-08-19T09:17:08.900Z,42.97
2022-08-19T09:19:47.238Z,41.33
2022-08-19T09:22:14.610Z,45.88
2022-08-19T09:24:53.230Z,49.67
2022-08-19T09:27:21.793Z,52.45
2022-08-19T09:29:49.964Z,44.88
2022-08-19T09:32:26.795Z,45.83
2022-08-19T09:34:58.947Z,45.72
2022-08-19T09:37:26.279Z,43.15
2022-08-19T09:39:53.681Z,39.72
2022-08-19T09:42:30.364Z,41.17
2022-08-19T09:44:57.966Z,40.40
2022-08-19T09:47:27.768Z,39.63
2022-08-19T09:49:55.925Z,40.90
2022-08-19T09:52:23.169Z,48.70
2022-08-19T09:54:55.174Z,44.80
2022-08-19T09:57:22.415Z,44.13
2022-08-19T09:59:49.686Z,43.45
2022-08-19T10:02:16.939Z,43.97
2022-08-19T10:05:08.103Z,41.38
2022-08-19T10:07:36.448Z,42.15
2022-08-19T10:10:07.743Z,44.95
2022-08-19T10:12:35.451Z,44.17
2022-08-19T10:15:02.753Z,43.58
2022-08-19T10:17:31.711Z,45.42
2022-08-19T10:20:01.056Z,42.75
2022-08-19T10:22:28.451Z,45.15
2022-08-19T10:24:55.783Z,48.10
2022-08-19T10:27:23.080Z,48.05
2022-08-19T10:29:50.334Z,40.95
2022-08-19T10:32:17.599Z,46.90
2022-08-19T10:34:48.179Z,40.92
2022-08-19T10:37:23.953Z,48.33
2022-08-19T10:39:56.572Z,42.97
2022-08-19T10:42:24.034Z,42.85
2022-08-19T10:44:51.847Z,30.38
2022-08-19T10:47:25.477Z,31.45
2022-08-19T10:50:12.926Z,29.70
2022-08-19T10:52:50.708Z,24.90
2022-08-19T10:55:39.247Z,19.42
2022-08-19T10:58:11.534Z,20.90
2022-08-19T11:00:38.789Z,21.58
2022-08-19T11:03:06.018Z,17.00
2022-08-19T11:05:36.439Z,20.17
2022-08-19T11:08:23.283Z,25.20
2022-08-19T11:10:54.600Z,28.42
2022-08-19T11:13:22.989Z,23.70
2022-08-19T11:16:06.550Z,22.75
2022-08-19T11:18:37.065Z,19.43
2022-08-19T11:21:12.760Z,21.33
2022-08-19T11:23:40.253Z,21.38
2022-08-19T11:26:07.546Z,18.13
2022-08-19T11:28:34.906Z,15.63
2022-08-19T11:31:04.293Z,10.05
2022-08-19T11:33:31.960Z,13.02
2022-08-19T11:36:00.273Z,10.27
2022-08-19T11:38:27.703Z,10.15
2022-08-19T11:40:59.336Z,11.35
2022-08-19T11:43:27.809Z,9.63
2022-08-19T11:45:56.179Z,9.15
2022-08-19T11:48:23.947Z,8.32
2022-08-19T11:50:51.972Z,8.13
2022-08-19T11:53:20.260Z,7.38
2022-08-19T11:55:48.320Z,4.93
2022-08-19T11:58:18.964Z,6.80
2022-08-19T12:00:46.661Z,2.97
2022-08-19T12:03:14.067Z,2.47
2022-08-19T12:05:41.771Z,2.53
2022-08-19T12:08:09.019Z,2.17
2022-08-19T12:10:36.311Z,4.13
2022-08-19T12:13:03.603Z,2.58
2022-08-19T12:15:37.010Z,2.78
2022-08-19T12:18:05.100Z,3.47
2022-08-19T12:20:33.515Z,4.00
2022-08-19T12:23:04.366Z,2.40
2022-08-19T12:25:32.625Z,2.40
2022-08-19T12:28:00.302Z,3.50
2022-08-19T12:30:27.929Z,3.08
2022-08-19T12:32:55.188Z,2.40
2022-08-19T12:35:22.708Z,2.47
2022-08-19T12:37:56.615Z,3.97
2022-08-19T12:40:26.625Z,3.20
2022-08-19T12:42:54.902Z,2.20
2022-08-19T12:45:23.386Z,2.20
2022-08-19T12:47:50.748Z,2.58
2022-08-19T12:50:22.455Z,1.90
2022-08-19T12:52:49.745Z,2.50
2022-08-19T12:55:17.906Z,3.95
2022-08-19T12:57:45.299Z,2.45
2022-08-19T13:00:17.365Z,1.70
2022-08-19T13:02:46.449Z,2.45
2022-08-19T13:05:16.748Z,2.55
2022-08-19T13:07:46.844Z,2.53
2022-08-19T13:10:16.464Z,3.65
2022-08-19T13:12:44.587Z,2.70
2022-08-19T13:15:12.199Z,1.77
2022-08-19T13:17:39.922Z,2.70
2022-08-19T13:20:09.352Z,2.83
2022-08-19T13:22:37.007Z,3.25
2022-08-19T13:25:07.879Z,2.47
2022-08-19T13:27:35.239Z,2.60
2022-08-19T13:30:22.147Z,4.97
2022-08-19T13:33:08.011Z,2.67
2022-08-19T13:35:35.250Z,2.55
2022-08-19T13:38:05.607Z,5.50
2022-08-19T13:40:34.544Z,2.97
2022-08-19T13:43:04.179Z,2.65
2022-08-19T13:45:51.425Z,3.17
2022-08-19T13:48:19.804Z,6.53
2022-08-19T13:50:48.252Z,3.25
2022-08-19T13:53:15.636Z,3.15
2022-08-19T13:55:43.345Z,4.03
2022-08-19T13:58:11.599Z,4.35
2022-08-19T14:00:41.235Z,4.13
2022-08-19T14:03:09.446Z,4.47
2022-08-19T14:05:36.936Z,4.50
2022-08-19T14:08:04.260Z,4.18
2022-08-19T14:10:32.863Z,6.65
2022-08-19T14:13:01.167Z,4.13
2022-08-19T14:15:28.687Z,6.50
2022-08-19T14:17:56.286Z,4.63
2022-08-19T14:20:25.932Z,4.75
2022-08-19T14:22:54.015Z,3.30
2022-08-19T14:25:26.555Z,5.35
2022-08-19T14:27:54.168Z,3.88
2022-08-19T14:30:27.770Z,6.13
2022-08-19T14:32:59.230Z,3.55
2022-08-19T14:35:29.871Z,2.58
2022-08-19T14:37:58.621Z,2.72
2022-08-19T14:40:27.111Z,2.30
2022-08-19T14:43:00.150Z,3.70
2022-08-19T14:45:28.130Z,2.35
2022-08-19T14:47:55.637Z,3.28
2022-08-19T14:50:23.863Z,3.75
2022-08-19T14:52:52.672Z,2.95
2022-08-19T14:55:20.030Z,3.30
2022-08-19T14:57:47.356Z,2.58
2022-08-19T15:00:15.383Z,3.17
2022-08-19T15:02:44.980Z,3.20
2022-08-19T15:05:13.173Z,2.60
2022-08-19T15:07:40.670Z,5.10
2022-08-19T15:10:08.977Z,3.58
2022-08-19T15:12:36.432Z,3.17
2022-08-19T15:15:03.895Z,5.70
2022-08-19T15:17:45.840Z,3.25
2022-08-19T15:20:15.729Z,4.18
2022-08-19T15:22:43.233Z,3.97
2022-08-19T15:25:11.882Z,4.50
2022-08-19T15:27:40.628Z,4.07
2022-08-19T15:30:09.537Z,3.95
2022-08-19T15:32:37.424Z,3.72
2022-08-19T15:35:06.738Z,6.05
2022-08-19T15:37:37.066Z,6.82
2022-08-19T15:40:09.583Z,6.82
2022-08-19T15:42:37.436Z,6.93
2022-08-19T15:45:08.194Z,7.97
2022-08-19T15:47:35.846Z,10.98
2022-08-19T15:50:13.124Z,9.45
2022-08-19T15:52:50.493Z,9.23
2022-08-19T15:55:33.205Z,9.90
2022-08-19T15:58:28.534Z,10.60
2022-08-19T16:01:23.683Z,9.40
2022-08-19T16:04:14.186Z,8.40
2022-08-19T16:06:54.012Z,7.82
2022-08-19T16:09:27.306Z,9.65
2022-08-19T16:11:57.217Z,9.07
2022-08-19T16:14:29.004Z,7.10
2022-08-19T16:16:56.776Z,7.93
2022-08-19T16:19:24.377Z,9.50
2022-08-19T16:21:52.739Z,7.15
2022-08-19T16:24:22.044Z,5.28
2022-08-19T16:26:49.272Z,5.28
2022-08-19T16:29:33.343Z,4.30
2022-08-19T16:32:05.030Z,4.20
2022-08-19T16:34:32.286Z,5.10
2022-08-19T16:37:01.145Z,4.25
2022-08-19T16:39:28.432Z,5.18
2022-08-19T16:41:55.660Z,4.45
2022-08-19T16:44:22.944Z,4.68
2022-08-19T16:46:58.901Z,6.18
2022-08-19T16:49:54.008Z,6.15
2022-08-19T16:52:17.893Z,6.43
2022-08-19T16:54:45.228Z,7.88
2022-08-19T16:57:12.818Z,7.15
2022-08-19T16:59:42.489Z,7.35
2022-08-19T17:02:16.786Z,7.05
2022-08-19T17:04:44.016Z,7.35
2022-08-19T17:07:11.268Z,6.95
2022-08-19T17:09:38.498Z,6.43
2022-08-19T17:12:06.057Z,7.20
2022-08-19T17:14:33.304Z,7.18
2022-08-19T17:17:00.696Z,6.90
2022-08-19T17:19:28.337Z,6.70
2022-08-19T17:21:57.706Z,6.28
2022-08-19T17:24:25.055Z,5.78
2022-08-19T17:26:52.313Z,5.85
2022-08-19T17:29:19.538Z,6.22
2022-08-19T17:31:46.766Z,6.82
2022-08-19T17:34:14.015Z,8.77
2022-08-19T17:36:41.535Z,7.50
2022-08-19T17:39:08.803Z,7.63
2022-08-19T17:41:36.052Z,6.85
2022-08-19T17:44:03.984Z,6.68
2022-08-19T17:46:31.287Z,6.05
2022-08-19T17:48:58.575Z,6.63
2022-08-19T17:51:40.768Z,5.95
2022-08-19T17:54:11.192Z,5.45
2022-08-19T17:56:38.454Z,6.15
2022-08-19T17:59:06.182Z,7.18
2022-08-19T18:01:53.576Z,7.00
2022-08-19T18:06:53.249Z,10.75
2022-08-19T18:09:30.099Z,10.35
2022-08-19T18:12:08.782Z,12.75
2022-08-19T18:14:37.488Z,13.45
2022-08-19T18:17:10.246Z,14.55
2022-08-19T18:19:41.337Z,11.55
2022-08-19T18:22:09.981Z,11.77
2022-08-19T18:24:41.490Z,14.05
2022-08-19T18:27:09.923Z,13.93
2022-08-19T18:29:38.255Z,12.75
2022-08-19T18:32:12.514Z,19.67
2022-08-19T18:34:43.145Z,14.13
2022-08-19T18:37:10.768Z,15.07
2022-08-19T18:39:56.859Z,12.75
2022-08-19T18:42:42.648Z,17.33
2022-08-19T18:45:28.749Z,10.88
2022-08-19T18:48:26.496Z,10.43
2022-08-19T18:50:57.027Z,13.00
2022-08-19T18:53:24.859Z,13.98
2022-08-19T18:55:53.881Z,12.65
2022-08-19T18:58:26.754Z,14.13
2022-08-19T19:00:56.735Z,18.92
2022-08-19T19:03:27.762Z,16.35
2022-08-19T19:05:55.087Z,14.52
2022-08-19T19:08:27.105Z,17.05
2022-08-19T19:10:56.075Z,20.70
2022-08-19T19:13:23.320Z,19.85
2022-08-19T19:15:50.565Z,18.42
2022-08-19T19:18:17.784Z,19.83
2022-08-19T19:20:45.011Z,21.40
2022-08-19T19:23:12.226Z,17.42
2022-08-19T19:25:49.820Z,18.75
2022-08-19T19:28:17.396Z,17.92
2022-08-19T19:30:44.630Z,18.20
2022-08-19T19:33:11.867Z,18.15
2022-08-19T19:35:40.931Z,19.27
2022-08-19T19:38:13.014Z,25.60
2022-08-19T19:40:40.234Z,17.88
2022-08-19T19:43:08.238Z,17.77
2022-08-19T19:45:35.515Z,18.98
2022-08-19T19:48:02.775Z,18.42
2022-08-19T19:50:31.183Z,16.67
2022-08-19T19:52:58.589Z,17.52
2022-08-19T19:55:26.666Z,16.80
2022-08-19T19:57:54.279Z,18.25
2022-08-19T20:00:21.858Z,17.10
2022-08-19T20:02:50.639Z,18.33
2022-08-19T20:05:20.733Z,16.75
2022-08-19T20:08:06.523Z,18.35
2022-08-19T20:10:33.817Z,16.95
2022-08-19T20:13:04.921Z,15.50
2022-08-19T20:15:32.284Z,17.90
2022-08-19T20:17:59.981Z,14.48
2022-08-19T20:20:27.288Z,15.13
2022-08-19T20:22:55.077Z,18.73
2022-08-19T20:25:22.492Z,17.75
2022-08-19T20:27:50.107Z,16.52
2022-08-19T20:30:19.290Z,16.48
2022-08-19T20:32:48.052Z,17.38
2022-08-19T20:35:17.011Z,15.75
2022-08-19T20:37:44.474Z,16.73
2022-08-19T20:40:13.274Z,16.95
2022-08-19T20:42:40.916Z,13.85
2022-08-19T20:45:26.720Z,14.55
2022-08-19T20:47:57.866Z,15.25
2022-08-19T20:50:26.046Z,17.73
2022-08-19T20:52:56.004Z,15.50
2022-08-19T20:55:23.306Z,16.50
2022-08-19T20:57:51.492Z,15.43
2022-08-19T21:00:19.166Z,15.40
2022-08-19T21:02:46.897Z,18.60
2022-08-19T21:05:14.928Z,16.42
2022-08-19T21:07:42.268Z,16.30
2022-08-19T21:10:09.591Z,16.20
2022-08-19T21:12:36.884Z,17.27
2022-08-19T21:15:04.749Z,15.77
2022-08-19T21:17:31.996Z,16.65
2022-08-19T21:19:59.326Z,15.60
2022-08-19T21:22:26.537Z,14.82
2022-08-19T21:24:53.761Z,15.52
2022-08-19T21:27:20.990Z,15.65
2022-08-19T21:29:49.052Z,16.48
2022-08-19T21:32:16.707Z,17.10
2022-08-19T21:34:46.533Z,14.40
2022-08-19T21:37:25.104Z,12.98
2022-08-19T21:39:54.198Z,16.48
2022-08-19T21:42:22.414Z,16.60
2022-08-19T21:44:49.665Z,17.23
2022-08-19T21:47:17.011Z,15.75
2022-08-19T21:49:44.277Z,16.02
2022-08-19T21:52:11.518Z,16.65
2022-08-19T21:54:38.989Z,16.40
2022-08-19T21:57:10.275Z,18.60
2022-08-19T21:59:41.304Z,21.35
2022-08-19T22:02:20.504Z,20.88
2022-08-19T22:04:50.652Z,23.00
2022-08-19T22:07:18.052Z,21.88
2022-08-19T22:09:45.916Z,24.40
2022-08-19T22:12:24.651Z,24.33
2022-08-19T22:14:52.098Z,26.15
2022-08-19T22:17:19.344Z,27.65
2022-08-19T22:19:46.651Z,25.65
2022-08-19T22:22:19.137Z,25.77
2022-08-19T22:24:46.374Z,28.70
2022-08-19T22:27:13.602Z,25.50
2022-08-19T22:29:40.850Z,24.90
2022-08-19T22:32:26.658Z,25.13
2022-08-19T22:34:57.874Z,22.08
2022-08-19T22:37:25.445Z,22.52
2022-08-19T22:39:52.797Z,21.73
2022-08-19T22:42:20.965Z,22.75
2022-08-19T22:44:48.802Z,21.23
2022-08-19T22:47:16.043Z,21.40
2022-08-19T22:49:44.157Z,21.98
2022-08-19T22:52:18.222Z,23.17
2022-08-19T22:54:47.328Z,20.45
2022-08-19T22:57:14.889Z,17.42
2022-08-19T22:59:42.244Z,18.00
2022-08-19T23:02:09.503Z,17.50
2022-08-19T23:04:36.818Z,16.33
2022-08-19T23:07:05.063Z,18.70
2022-08-19T23:09:32.322Z,17.13
2022-08-19T23:12:00.589Z,17.15
2022-08-19T23:14:28.107Z,17.13
2022-08-19T23:16:58.873Z,19.40
2022-08-19T23:19:26.726Z,21.65
2022-08-19T23:21:54.079Z,16.08
2022-08-19T23:24:21.380Z,19.02
2022-08-19T23:27:07.074Z,17.13
2022-08-19T23:29:53.154Z,17.50
2022-08-19T23:32:20.836Z,16.83
2022-08-19T23:34:48.481Z,19.98
2022-08-19T23:37:15.783Z,19.20
2022-08-19T23:39:43.542Z,16.92
2022-08-19T23:42:12.790Z,18.27
2022-08-19T23:44:51.669Z,17.98
2022-08-19T23:47:20.908Z,17.95
2022-08-19T23:49:48.680Z,18.25
2022-08-19T23:52:16.048Z,21.77
2022-08-19T23:54:44.059Z,20.52
2022-08-19T23:57:13.465Z,18.35
2022-08-19T23:59:42.809Z,19.65
